• Join FlightAware (Why Join?)
  • Login
  • US Flag 
04:50PM EST


 

Airport Tracker/Info


-or-


 

Live Flight TrackerFlight Track Log ✈ PDT4389 ✈ 04-May-2014 ✈ KPHL - KDCA

Flight Track Log - Related Links

Times and Time Zones

All times are in EDT time to prevent confusion due to time zone crossing. See the PDT4389 flight status page for this flight to view local times or setup timezone preferences in your user account.

Time Position Orientation Groundspeed Altitude Reporting Facility
EDT Latitude Longitude Course Direction KTS MPH feet Rate Location/Type
09:10PM 39.8667 -75.2667 237° Southwest 136 157 700  Level Philadelphia TRACON
09:11PM 39.8500 -75.2833 218° Southwest 140 161 1,500 1,080 Climbing Philadelphia TRACON
09:12PM 39.8000 -75.3000 194° South 160 184 2,400 720 Climbing Philadelphia TRACON
09:13PM 39.7500 -75.3167 194° South 179 206 3,000 240 Climbing Philadelphia TRACON
09:14PM 39.7167 -75.3667 229° Southwest 182 209 3,000 180 Level Philadelphia TRACON
09:15PM 39.7393 -75.4713 237° Southwest  Level FlightAware Approximate
09:15PM 39.7167 -75.4333 270° West 181 208 3,500  Level Philadelphia TRACON
09:16PM 39.7000 -75.4833 247° West 158 182 4,400 780 Climbing Philadelphia TRACON
09:17PM 39.6833 -75.5333 247° West 167 192 5,100 840 Climbing Philadelphia TRACON
09:17PM 39.6833 -75.5833 270° West 160 184 6,000 900 Climbing Philadelphia TRACON
09:19PM 39.6667 -75.6500 252° West 138 159 6,900 780 Climbing Philadelphia TRACON
09:19PM 39.6667 -75.6833 270° West 138 159 7,600 540 Climbing Philadelphia TRACON
09:20PM 39.6667 -75.7333 270° West 143 165 8,000 180 Climbing Philadelphia TRACON
09:21PM 39.6500 -75.8000 252° West 168 193 8,000  Level Philadelphia TRACON
09:24PM 39.6333 -75.9333 261° West 158 182 8,000 -120 Level Potomac TRACON
09:25PM 39.6167 -75.9833 247° West 168 193 7,700 -480 Descending Potomac TRACON
09:26PM 39.5833 -76.0333 229° Southwest 176 203 7,000 -660 Descending Potomac TRACON
09:27PM 39.5500 -76.0833 229° Southwest 179 206 6,400 -540 Descending Potomac TRACON
09:28PM 39.5333 -76.1167 237° Southwest 181 208 6,000 -240 Descending Potomac TRACON
09:29PM 39.5000 -76.1667 229° Southwest 175 201 6,000  Level Potomac TRACON
09:30PM 39.4667 -76.2167 229° Southwest 180 207 6,000  Level Potomac TRACON
09:31PM 39.4333 -76.2667 229° Southwest 177 204 6,000  Level Potomac TRACON
09:32PM 39.4000 -76.3167 229° Southwest 176 203 6,000  Level Potomac TRACON
09:33PM 39.3667 -76.3667 229° Southwest 171 197 6,000  Level Potomac TRACON
09:34PM 39.3333 -76.4167 229° Southwest 178 205 6,000  Level Potomac TRACON
09:35PM 39.3000 -76.4500 218° Southwest 177 204 6,000 -60 Level Potomac TRACON
09:36PM 39.2667 -76.5000 229° Southwest 169 194 5,900  Descending Potomac TRACON
09:37PM 39.2500 -76.5667 252° West 173 199 6,000  Climbing Potomac TRACON
09:38PM 39.2167 -76.6000 218° Southwest 178 205 6,000 -60 Level Potomac TRACON
09:39PM 39.1833 -76.6667 237° Southwest 180 207 5,900 -60 Descending Potomac TRACON
09:40PM 39.1333 -76.7000 207° Southwest 185 213 5,900  Level Potomac TRACON
09:41PM 39.1000 -76.7500 229° Southwest 184 212 6,000 60 Climbing Potomac TRACON
09:42PM 39.0667 -76.7833 218° Southwest 180 207 6,100 -180 Climbing Potomac TRACON
09:43PM 39.0167 -76.8333 218° Southwest 189 217 5,700 -540 Descending Potomac TRACON
09:44PM 38.9833 -76.8833 229° Southwest 207 238 5,100 -900 Descending Potomac TRACON
09:45PM 38.9167 -76.9000 191° South 229 264 4,000 -1,080 Descending Potomac TRACON
09:46PM 38.8667 -76.9167 195° South 217 250 3,000 -540 Descending Potomac TRACON
09:47PM 38.8167 -76.9167 180° South 199 229 3,000 -300 Level Potomac TRACON
09:48PM 38.7833 -76.9500 218° Southwest 142 163 2,500 -840 Descending Potomac TRACON
09:49PM 38.8000 -76.9833 303° West 132 152 1,400 -960 Descending Potomac TRACON
09:50PM 38.8333 -77.0167 322° Northwest 137 158 600 -840 Descending Potomac TRACON
09:52PM 38.8519 -77.0377 322° Northwest  Level Estimated
09:59PM 38.8500 -77.0333 226° Southwest  Level FlightAware Approximate
10:00PM 38.8519 -77.0377 270° West  Level Estimated
10:01PM 38.8500 -77.0333 226° Southwest  Level FlightAware Approximate